createdAt,value
2018-07-12T00:02:18.383Z,74.93
2018-07-12T00:04:46.118Z,74.85
2018-07-12T00:07:14.269Z,74.73
2018-07-12T00:09:41.567Z,74.89
2018-07-12T00:12:08.849Z,75.06
2018-07-12T00:14:36.144Z,75.16
2018-07-12T00:17:03.459Z,75.10
2018-07-12T00:19:30.872Z,75.50
2018-07-12T00:21:58.208Z,75.50
2018-07-12T00:24:25.487Z,74.79
2018-07-12T00:26:52.765Z,75.46
2018-07-12T00:29:20.067Z,75.62
2018-07-12T00:31:47.397Z,75.13
2018-07-12T00:34:14.690Z,75.14
2018-07-12T00:36:42.028Z,74.84
2018-07-12T00:39:09.478Z,75.46
2018-07-12T00:41:36.768Z,75.73
2018-07-12T00:44:04.081Z,75.21
2018-07-12T00:46:31.423Z,75.09
2018-07-12T00:48:58.719Z,75.10
2018-07-12T00:51:26.020Z,75.81
2018-07-12T00:53:53.320Z,75.85
2018-07-12T00:56:20.700Z,75.87
2018-07-12T00:58:47.976Z,75.68
2018-07-12T01:01:15.357Z,75.25
2018-07-12T01:03:42.637Z,75.53
2018-07-12T01:06:09.969Z,75.52
2018-07-12T01:08:37.287Z,75.22
2018-07-12T01:11:04.630Z,75.10
2018-07-12T01:13:31.959Z,75.13
2018-07-12T01:15:59.273Z,75.28
2018-07-12T01:18:26.567Z,75.00
2018-07-12T01:20:53.863Z,75.43
2018-07-12T01:23:21.140Z,75.00
2018-07-12T01:25:48.448Z,75.08
2018-07-12T01:28:15.755Z,74.89
2018-07-12T01:30:43.188Z,74.60
2018-07-12T01:33:10.652Z,74.10
2018-07-12T01:35:37.986Z,74.47
2018-07-12T01:38:05.288Z,74.59
2018-07-12T01:40:32.597Z,74.70
2018-07-12T01:42:59.920Z,74.88
2018-07-12T01:45:27.308Z,74.88
2018-07-12T01:47:54.603Z,74.37
2018-07-12T01:50:21.988Z,74.69
2018-07-12T01:52:49.267Z,74.77
2018-07-12T01:55:16.560Z,75.22
2018-07-12T01:57:43.840Z,75.15
2018-07-12T02:00:11.138Z,75.04
2018-07-12T02:02:38.553Z,75.08
2018-07-12T02:05:06.223Z,75.25
2018-07-12T02:07:33.509Z,74.72
2018-07-12T02:10:00.896Z,74.68
2018-07-12T02:12:28.188Z,75.08
2018-07-12T02:14:55.464Z,75.03
2018-07-12T02:17:22.773Z,75.22
2018-07-12T02:19:56.308Z,75.67
2018-07-12T02:22:23.676Z,75.77
2018-07-12T02:24:50.957Z,76.04
2018-07-12T02:27:18.272Z,75.45
2018-07-12T02:29:45.737Z,75.37
2018-07-12T02:32:13.039Z,75.47
2018-07-12T02:34:40.353Z,75.11
2018-07-12T02:37:07.669Z,74.79
2018-07-12T02:39:34.972Z,74.79
2018-07-12T02:42:02.284Z,74.84
2018-07-12T02:44:29.557Z,75.18
2018-07-12T02:46:56.846Z,75.24
2018-07-12T02:49:24.215Z,75.42
2018-07-12T02:51:51.508Z,75.53
2018-07-12T02:54:18.861Z,75.20
2018-07-12T02:56:46.160Z,75.14
2018-07-12T02:59:13.465Z,74.96
2018-07-12T03:01:40.776Z,75.12
2018-07-12T03:04:08.084Z,75.17
2018-07-12T03:06:35.445Z,74.60
2018-07-12T03:09:02.826Z,74.80
2018-07-12T03:11:30.121Z,74.86
2018-07-12T03:13:57.420Z,74.62
2018-07-12T03:16:41.755Z,75.07
2018-07-12T03:19:09.092Z,75.60
2018-07-12T03:21:36.448Z,75.79
2018-07-12T03:24:03.743Z,75.98
2018-07-12T03:26:31.047Z,75.99
2018-07-12T03:28:58.360Z,75.99
2018-07-12T03:31:25.744Z,76.16
2018-07-12T03:33:53.137Z,76.28
2018-07-12T03:36:20.488Z,75.73
2018-07-12T03:38:47.798Z,76.18
2018-07-12T03:41:15.092Z,76.13
2018-07-12T03:43:42.396Z,75.98
2018-07-12T03:46:09.749Z,76.05
2018-07-12T03:48:37.168Z,75.91
2018-07-12T03:51:04.471Z,76.00
2018-07-12T03:53:31.809Z,76.05
2018-07-12T03:55:59.117Z,76.26
2018-07-12T03:58:26.417Z,76.36
2018-07-12T04:00:53.718Z,76.50
2018-07-12T04:03:21.034Z,76.38
2018-07-12T04:05:48.813Z,76.08
2018-07-12T04:08:16.100Z,75.88
2018-07-12T04:10:43.383Z,75.89
2018-07-12T04:13:10.715Z,75.81
2018-07-12T04:15:38.044Z,75.68
2018-07-12T04:18:05.350Z,75.53
2018-07-12T04:20:32.649Z,75.18
2018-07-12T04:22:59.951Z,75.54
2018-07-12T04:25:27.271Z,75.57
2018-07-12T04:27:54.628Z,75.66
2018-07-12T04:30:21.913Z,75.25
2018-07-12T04:32:49.201Z,75.43
2018-07-12T04:35:16.545Z,75.61
2018-07-12T04:37:43.898Z,75.54
2018-07-12T04:40:11.196Z,75.74
2018-07-12T04:42:38.532Z,75.95
2018-07-12T04:45:05.854Z,76.07
2018-07-12T04:47:33.201Z,76.28
2018-07-12T04:50:00.499Z,76.03
2018-07-12T04:52:27.829Z,75.90
2018-07-12T04:54:55.117Z,75.70
2018-07-12T04:57:22.453Z,75.39
2018-07-12T04:59:49.778Z,75.52
2018-07-12T05:02:17.068Z,75.84
2018-07-12T05:04:44.370Z,75.69
2018-07-12T05:07:11.922Z,75.33
2018-07-12T05:09:39.232Z,75.83
2018-07-12T05:12:06.540Z,75.58
2018-07-12T05:14:33.877Z,75.69
2018-07-12T05:17:01.157Z,75.42
2018-07-12T05:19:28.442Z,75.40
2018-07-12T05:21:55.782Z,75.07
2018-07-12T05:24:23.079Z,74.34
2018-07-12T05:26:50.374Z,74.89
2018-07-12T05:29:17.669Z,74.76
2018-07-12T05:31:44.997Z,73.52
2018-07-12T05:34:12.284Z,74.43
2018-07-12T05:36:53.084Z,74.95
2018-07-12T05:39:22.053Z,75.30
2018-07-12T05:41:51.105Z,74.90
2018-07-12T05:44:19.737Z,75.41
2018-07-12T05:46:48.718Z,75.87
2018-07-12T05:49:17.405Z,76.84
2018-07-12T05:51:46.808Z,76.63
2018-07-12T05:54:16.082Z,76.88
2018-07-12T05:56:44.796Z,75.10
2018-07-12T05:59:13.546Z,75.88
2018-07-12T06:01:53.211Z,75.77
2018-07-12T06:04:21.813Z,74.60
2018-07-12T06:06:51.174Z,74.53
2018-07-12T06:09:19.859Z,74.49
2018-07-12T06:11:48.445Z,74.61
2018-07-12T06:14:16.983Z,73.91
2018-07-12T06:16:45.567Z,73.08
2018-07-12T06:19:14.332Z,70.73
2018-07-12T06:21:42.943Z,68.37
2018-07-12T06:24:11.614Z,68.28
2018-07-12T06:26:40.344Z,67.93
2018-07-12T06:29:08.936Z,67.33
2018-07-12T06:31:37.481Z,66.12
2018-07-12T06:34:06.122Z,65.73
2018-07-12T06:36:34.642Z,65.32
2018-07-12T06:39:03.471Z,64.27
2018-07-12T06:41:32.204Z,64.25
2018-07-12T06:44:00.777Z,63.71
2018-07-12T06:46:29.375Z,64.46
2018-07-12T06:48:57.946Z,64.21
2018-07-12T06:51:26.484Z,63.50
2018-07-12T06:53:55.066Z,64.17
2018-07-12T06:56:23.628Z,64.24
2018-07-12T06:58:52.435Z,64.41
2018-07-12T07:01:21.814Z,63.69
2018-07-12T07:03:50.366Z,64.66
2018-07-12T07:06:19.055Z,63.76
2018-07-12T07:08:47.676Z,64.03
2018-07-12T07:11:16.490Z,63.70
2018-07-12T07:13:45.440Z,63.89
2018-07-12T07:16:14.057Z,64.80
2018-07-12T07:18:42.723Z,63.83
2018-07-12T07:21:11.830Z,63.70
2018-07-12T07:23:40.387Z,64.10
2018-07-12T07:26:09.032Z,63.72
2018-07-12T07:28:37.600Z,64.18
2018-07-12T07:31:06.316Z,63.72
2018-07-12T07:33:34.843Z,63.42
2018-07-12T07:36:03.442Z,63.62
2018-07-12T07:38:31.979Z,62.80
2018-07-12T07:41:00.569Z,62.20
2018-07-12T07:43:29.449Z,61.80
2018-07-12T07:45:58.040Z,61.59
2018-07-12T07:48:27.016Z,61.33
2018-07-12T07:50:55.648Z,61.17
2018-07-12T07:53:24.341Z,60.34
2018-07-12T07:55:52.915Z,61.00
2018-07-12T07:58:21.465Z,60.50
2018-07-12T08:00:50.060Z,60.09
2018-07-12T08:03:29.237Z,59.63
2018-07-12T08:05:57.942Z,59.00
2018-07-12T08:08:27.735Z,59.49
2018-07-12T08:10:56.457Z,59.32
2018-07-12T08:13:25.202Z,57.62
2018-07-12T08:15:53.745Z,58.32
2018-07-12T08:18:22.294Z,58.04
2018-07-12T08:20:50.864Z,58.49
2018-07-12T08:23:19.556Z,58.35
2018-07-12T08:25:48.208Z,58.62
2018-07-12T08:28:27.580Z,58.42
2018-07-12T08:30:56.497Z,58.40
2018-07-12T08:33:25.575Z,57.81
2018-07-12T08:35:54.033Z,58.00
2018-07-12T08:38:22.695Z,57.78
2018-07-12T08:40:51.221Z,57.92
2018-07-12T08:43:19.800Z,57.49
2018-07-12T08:45:48.375Z,57.10
2018-07-12T08:48:16.973Z,56.67
2018-07-12T08:50:45.539Z,56.37
2018-07-12T08:53:14.446Z,54.28
2018-07-12T08:55:43.000Z,56.69
2018-07-12T08:58:13.463Z,55.78
2018-07-12T09:00:42.448Z,54.95
2018-07-12T09:03:11.118Z,53.25
2018-07-12T09:05:39.727Z,52.78
2018-07-12T09:08:08.310Z,53.10
2018-07-12T09:10:37.040Z,53.31
2018-07-12T09:13:05.781Z,54.10
2018-07-12T09:15:34.364Z,54.24
2018-07-12T09:18:02.938Z,52.99
2018-07-12T09:20:34.407Z,53.66
2018-07-12T09:23:02.989Z,53.19
2018-07-12T09:25:31.584Z,52.58
2018-07-12T09:28:00.128Z,51.16
2018-07-12T09:30:28.831Z,51.46
2018-07-12T09:32:57.701Z,51.07
2018-07-12T09:35:26.492Z,51.64
2018-07-12T09:37:55.105Z,52.01
2018-07-12T09:40:23.700Z,50.75
2018-07-12T09:42:52.527Z,50.78
2018-07-12T09:45:21.595Z,51.00
2018-07-12T09:47:50.147Z,51.12
2018-07-12T09:50:18.733Z,51.08
2018-07-12T09:52:47.292Z,50.71
2018-07-12T09:55:16.140Z,51.13
2018-07-12T09:57:55.831Z,50.83
2018-07-12T10:00:29.536Z,50.99
2018-07-12T10:03:03.451Z,50.72
2018-07-12T10:05:40.185Z,50.47
2018-07-12T10:08:13.999Z,50.03
2018-07-12T10:10:49.337Z,50.21
2018-07-12T10:13:30.049Z,50.91
2018-07-12T10:16:08.653Z,50.04
2018-07-12T10:18:37.424Z,50.07
2018-07-12T10:21:06.076Z,50.70
2018-07-12T10:23:34.671Z,49.89
2018-07-12T10:26:03.258Z,48.93
2018-07-12T10:28:31.804Z,49.76
2018-07-12T10:31:00.497Z,50.09
2018-07-12T10:33:29.110Z,49.73
2018-07-12T10:35:57.725Z,48.32
2018-07-12T10:38:26.329Z,48.70
2018-07-12T10:40:54.894Z,47.79
2018-07-12T10:43:23.614Z,49.45
2018-07-12T10:45:52.362Z,48.42
2018-07-12T10:48:20.980Z,48.42
2018-07-12T10:50:49.700Z,47.32
2018-07-12T10:53:18.251Z,48.08
2018-07-12T10:55:46.879Z,48.26
2018-07-12T10:58:15.558Z,47.81
2018-07-12T11:00:44.204Z,48.35
2018-07-12T11:03:13.818Z,48.71
2018-07-12T11:05:42.407Z,46.48
2018-07-12T11:08:11.034Z,48.27
2018-07-12T11:10:39.629Z,48.44
2018-07-12T11:13:18.413Z,46.90
2018-07-12T11:24:18.568Z,44.76
2018-07-12T11:26:47.200Z,45.51
2018-07-12T11:29:15.800Z,45.13
2018-07-12T11:31:44.347Z,45.83
2018-07-12T11:34:13.015Z,45.20
2018-07-12T11:36:41.611Z,46.11
2018-07-12T11:39:10.430Z,44.78
2018-07-12T11:41:39.050Z,46.29
2018-07-12T11:44:07.571Z,45.42
2018-07-12T11:46:36.184Z,43.65
2018-07-12T11:49:04.765Z,44.64
2018-07-12T11:51:33.365Z,45.67
2018-07-12T11:54:01.960Z,45.50
2018-07-12T11:56:30.543Z,46.26
2018-07-12T11:58:59.169Z,46.43
2018-07-12T12:01:27.829Z,45.63
2018-07-12T12:03:56.325Z,44.67
2018-07-12T12:06:24.911Z,44.99
2018-07-12T12:08:53.469Z,46.12
2018-07-12T12:11:22.752Z,43.33
2018-07-12T12:13:51.700Z,43.50
2018-07-12T12:16:20.424Z,45.28
2018-07-12T12:18:48.985Z,45.85
2018-07-12T12:21:21.875Z,45.04
2018-07-12T12:23:54.071Z,44.45
2018-07-12T12:26:23.909Z,44.19
2018-07-12T12:28:52.647Z,44.15
2018-07-12T12:31:31.565Z,43.61
2018-07-12T12:34:00.225Z,43.06
2018-07-12T12:36:28.972Z,43.50
2018-07-12T12:38:57.660Z,43.78
2018-07-12T12:41:26.235Z,43.22
2018-07-12T12:43:54.983Z,42.92
2018-07-12T12:46:24.031Z,44.13
2018-07-12T12:48:52.606Z,43.97
2018-07-12T12:51:21.318Z,44.61
2018-07-12T12:53:49.968Z,45.56
2018-07-12T12:56:18.712Z,45.75
2018-07-12T12:58:47.383Z,45.18
2018-07-12T13:01:15.986Z,44.09
2018-07-12T13:03:44.608Z,43.96
2018-07-12T13:06:13.267Z,43.94
2018-07-12T13:08:41.976Z,42.59
2018-07-12T13:11:10.635Z,42.60
2018-07-12T13:13:39.314Z,43.81
2018-07-12T13:16:07.927Z,42.60
2018-07-12T13:18:36.537Z,41.54
2018-07-12T13:21:05.513Z,41.91
2018-07-12T13:23:34.093Z,42.82
2018-07-12T13:26:02.693Z,42.93
2018-07-12T13:28:31.281Z,42.59
2018-07-12T13:30:59.860Z,42.41
2018-07-12T13:33:28.676Z,42.63
2018-07-12T13:35:57.229Z,43.85
2018-07-12T13:38:25.814Z,41.91
2018-07-12T13:40:54.415Z,43.05
2018-07-12T13:43:22.936Z,43.10
2018-07-12T13:45:51.544Z,41.74
2018-07-12T13:48:20.110Z,42.31
2018-07-12T13:50:48.677Z,40.55
2018-07-12T13:53:17.230Z,41.83
2018-07-12T13:55:45.926Z,42.48
2018-07-12T13:58:14.518Z,41.96
2018-07-12T14:00:43.081Z,41.64
2018-07-12T14:03:11.979Z,40.47
2018-07-12T14:05:40.624Z,40.60
2018-07-12T14:08:09.173Z,40.37
2018-07-12T14:10:37.769Z,40.21
2018-07-12T14:13:06.763Z,40.84
2018-07-12T14:15:35.350Z,41.35
2018-07-12T14:18:03.888Z,40.96
2018-07-12T14:20:32.537Z,41.19
2018-07-12T14:23:01.132Z,40.90
2018-07-12T14:25:29.659Z,41.37
2018-07-12T14:27:58.207Z,40.81
2018-07-12T14:30:26.861Z,40.66
2018-07-12T14:32:56.200Z,41.23
2018-07-12T14:35:36.857Z,40.71
2018-07-12T14:38:06.195Z,42.35
2018-07-12T14:40:35.590Z,42.49
2018-07-12T14:43:05.097Z,40.31
2018-07-12T14:45:33.786Z,41.29
2018-07-12T14:48:03.214Z,40.62
2018-07-12T14:50:31.885Z,41.47
2018-07-12T14:53:01.130Z,41.23
2018-07-12T14:55:29.924Z,41.34
2018-07-12T14:57:58.462Z,41.52
2018-07-12T15:00:27.052Z,40.94
2018-07-12T15:02:55.661Z,41.57
2018-07-12T15:05:24.449Z,40.56
2018-07-12T15:07:53.057Z,41.81
2018-07-12T15:10:21.743Z,40.16
2018-07-12T15:12:50.318Z,39.15
2018-07-12T15:15:19.519Z,40.77
2018-07-12T15:17:48.100Z,41.58
2018-07-12T15:20:16.705Z,41.68
2018-07-12T15:22:45.297Z,42.35
2018-07-12T15:25:14.669Z,42.47
2018-07-12T15:27:43.262Z,42.47
2018-07-12T15:30:11.857Z,42.70
2018-07-12T15:32:40.423Z,42.19
2018-07-12T15:35:09.127Z,41.37
2018-07-12T15:37:37.836Z,40.81
2018-07-12T15:40:06.421Z,40.88
2018-07-12T15:42:35.252Z,41.20
2018-07-12T15:45:03.914Z,40.79
2018-07-12T15:47:32.493Z,40.65
2018-07-12T15:50:01.232Z,40.74
2018-07-12T15:52:29.787Z,39.25
2018-07-12T15:54:58.386Z,39.88
2018-07-12T15:57:27.271Z,40.68
2018-07-12T15:59:55.872Z,39.94
2018-07-12T16:02:24.419Z,39.03
2018-07-12T16:04:53.012Z,40.38
2018-07-12T16:07:21.808Z,40.72
2018-07-12T16:09:50.414Z,41.57
2018-07-12T16:12:19.104Z,41.10
2018-07-12T16:14:47.711Z,41.02
2018-07-12T16:17:17.457Z,40.84
2018-07-12T16:19:46.922Z,40.56
2018-07-12T16:22:16.380Z,40.92
2018-07-12T16:24:45.790Z,41.17
2018-07-12T16:27:14.396Z,40.77
2018-07-12T16:29:43.140Z,41.08
2018-07-12T16:32:11.712Z,40.14
2018-07-12T16:34:40.282Z,40.40
2018-07-12T16:37:11.766Z,40.29
2018-07-12T16:39:40.375Z,39.77
2018-07-12T16:42:08.978Z,39.91
2018-07-12T16:44:37.672Z,40.75
2018-07-12T16:47:07.052Z,41.87
2018-07-12T16:49:35.680Z,41.41
2018-07-12T16:52:04.229Z,40.79
2018-07-12T16:54:33.243Z,40.80
2018-07-12T16:57:01.867Z,40.96
2018-07-12T16:59:30.410Z,41.42
2018-07-12T17:01:59.009Z,41.44
2018-07-12T17:04:27.564Z,40.44
2018-07-12T17:06:56.264Z,40.86
2018-07-12T17:09:24.999Z,39.90
2018-07-12T17:11:53.596Z,41.11
2018-07-12T17:14:22.273Z,39.53
2018-07-12T17:16:50.866Z,40.00
2018-07-12T17:19:19.466Z,39.84
2018-07-12T17:21:48.123Z,39.01
2018-07-12T17:24:16.821Z,39.68
2018-07-12T17:26:45.441Z,40.01
2018-07-12T17:29:14.079Z,40.72
2018-07-12T17:31:42.625Z,41.19
2018-07-12T17:34:11.238Z,40.97
2018-07-12T17:36:39.897Z,41.39
2018-07-12T17:39:09.282Z,41.91
2018-07-12T17:44:28.057Z,43.82
2018-07-12T17:46:56.645Z,44.14
2018-07-12T17:49:25.335Z,45.04
2018-07-12T17:57:34.575Z,46.32
2018-07-12T18:00:03.273Z,47.25
2018-07-12T18:02:31.845Z,47.44
2018-07-12T18:05:01.912Z,48.21
2018-07-12T18:07:31.751Z,47.70
2018-07-12T18:10:01.212Z,48.84
2018-07-12T18:12:30.767Z,48.64
2018-07-12T18:14:59.350Z,49.09
2018-07-12T18:17:27.931Z,49.26
2018-07-12T18:19:56.479Z,50.37
2018-07-12T18:22:25.118Z,50.50
2018-07-12T18:24:53.836Z,50.60
2018-07-12T18:27:22.651Z,50.77
2018-07-12T18:29:51.224Z,51.04
2018-07-12T18:32:20.037Z,51.13
2018-07-12T18:34:48.824Z,50.74
2018-07-12T18:37:17.568Z,50.89
2018-07-12T18:39:46.256Z,50.96
2018-07-12T18:42:14.987Z,51.19
2018-07-12T18:44:43.871Z,52.21
2018-07-12T18:47:12.640Z,52.20
2018-07-12T18:49:41.361Z,52.49
2018-07-12T18:52:28.832Z,53.50
2018-07-12T18:54:57.430Z,53.06
2018-07-12T18:57:26.154Z,52.48
2018-07-12T18:59:54.734Z,52.49
2018-07-12T19:02:23.325Z,53.01
2018-07-12T19:04:51.896Z,53.14
2018-07-12T19:07:20.938Z,53.36
2018-07-12T19:09:49.554Z,53.93
2018-07-12T19:12:18.336Z,53.69
2018-07-12T19:14:47.030Z,53.70
2018-07-12T19:17:15.640Z,54.57
2018-07-12T19:19:44.353Z,54.57
2018-07-12T19:22:13.132Z,54.82
2018-07-12T19:24:41.992Z,55.17
2018-07-12T19:27:11.057Z,55.87
2018-07-12T19:29:39.603Z,56.27
2018-07-12T19:32:08.351Z,56.12
2018-07-12T19:34:37.221Z,56.44
2018-07-12T19:37:05.777Z,57.35
2018-07-12T19:39:34.357Z,57.84
2018-07-12T19:42:02.911Z,57.87
2018-07-12T19:44:31.498Z,58.76
2018-07-12T19:47:00.579Z,58.51
2018-07-12T19:49:29.132Z,59.22
2018-07-12T19:51:57.691Z,58.66
2018-07-12T19:54:28.672Z,59.04
2018-07-12T19:56:58.349Z,58.76
2018-07-12T19:59:27.006Z,58.74
2018-07-12T20:01:55.562Z,59.29
2018-07-12T20:04:24.476Z,59.36
2018-07-12T20:06:53.913Z,59.21
2018-07-12T20:09:22.627Z,58.50
2018-07-12T20:11:51.183Z,58.24
2018-07-12T20:14:20.055Z,58.23
2018-07-12T20:16:48.625Z,58.08
2018-07-12T20:19:17.221Z,58.69
2018-07-12T20:21:45.787Z,59.09
2018-07-12T20:24:14.380Z,59.00
2018-07-12T20:26:42.947Z,59.33
2018-07-12T20:29:11.645Z,60.09
2018-07-12T20:31:40.490Z,59.86
2018-07-12T20:34:09.068Z,60.61
2018-07-12T20:36:37.753Z,60.28
2018-07-12T20:39:07.800Z,60.73
2018-07-12T20:41:36.496Z,60.61
2018-07-12T20:44:05.065Z,60.08
2018-07-12T20:46:33.610Z,60.26
2018-07-12T20:49:02.171Z,60.46
2018-07-12T20:51:30.777Z,60.22
2018-07-12T20:53:59.361Z,60.04
2018-07-12T20:56:27.984Z,60.24
2018-07-12T20:58:56.575Z,60.29
2018-07-12T21:01:25.145Z,61.14
2018-07-12T21:03:54.543Z,61.08
2018-07-12T21:06:23.235Z,60.94
2018-07-12T21:08:51.799Z,60.94
2018-07-12T21:11:20.389Z,61.08
2018-07-12T21:13:48.936Z,61.10
2018-07-12T21:16:17.521Z,61.53
2018-07-12T21:18:46.104Z,61.10
2018-07-12T21:21:15.065Z,60.99
2018-07-12T21:23:43.722Z,61.74
2018-07-12T21:26:12.275Z,62.10
2018-07-12T21:28:40.907Z,62.81
2018-07-12T21:31:09.648Z,63.03
2018-07-12T21:33:38.266Z,62.90
2018-07-12T21:36:06.874Z,62.81
2018-07-12T21:38:35.408Z,63.11
2018-07-12T21:41:04.012Z,62.33
2018-07-12T21:43:32.784Z,62.51
2018-07-12T21:46:01.697Z,61.59
2018-07-12T21:48:30.295Z,62.65
2018-07-12T21:50:58.948Z,62.86
2018-07-12T21:53:27.597Z,63.35
2018-07-12T21:55:56.639Z,63.28
2018-07-12T21:58:25.180Z,63.49
2018-07-12T22:00:53.800Z,63.53
2018-07-12T22:03:22.580Z,63.42
2018-07-12T22:05:54.194Z,62.44
2018-07-12T22:08:28.425Z,61.86
2018-07-12T22:11:00.626Z,62.17
2018-07-12T22:13:29.916Z,61.98
2018-07-12T22:15:58.612Z,62.10
2018-07-12T22:18:27.201Z,61.94
2018-07-12T22:20:55.835Z,62.16
2018-07-12T22:23:24.652Z,62.96
2018-07-12T22:25:53.263Z,62.79
2018-07-12T22:28:22.008Z,63.02
2018-07-12T22:30:50.760Z,63.59
2018-07-12T22:33:19.514Z,63.80
2018-07-12T22:35:48.204Z,65.21
2018-07-12T22:38:16.756Z,65.18
2018-07-12T22:40:45.555Z,65.17
2018-07-12T22:43:14.208Z,65.37
2018-07-12T22:45:42.825Z,65.29
2018-07-12T22:48:11.487Z,64.80
2018-07-12T22:50:40.057Z,64.72
2018-07-12T22:53:08.670Z,64.66
2018-07-12T22:55:37.433Z,64.76
2018-07-12T22:58:06.128Z,65.21
2018-07-12T23:00:34.732Z,65.42
2018-07-12T23:03:03.514Z,65.40
2018-07-12T23:05:32.232Z,65.40
2018-07-12T23:08:00.796Z,65.63
2018-07-12T23:10:29.902Z,65.46
2018-07-12T23:12:58.521Z,65.82
2018-07-12T23:15:27.226Z,65.91
2018-07-12T23:17:55.826Z,66.73
2018-07-12T23:20:24.601Z,66.90
2018-07-12T23:22:53.549Z,66.53
2018-07-12T23:25:22.194Z,67.04
2018-07-12T23:27:50.753Z,67.41
2018-07-12T23:30:19.513Z,67.18
2018-07-12T23:32:48.127Z,67.16
2018-07-12T23:35:16.823Z,67.13
2018-07-12T23:37:45.508Z,66.69
2018-07-12T23:40:14.090Z,66.84
2018-07-12T23:42:42.704Z,66.63
2018-07-12T23:45:11.828Z,65.79
2018-07-12T23:47:40.514Z,66.35
2018-07-12T23:50:09.060Z,66.48
2018-07-12T23:52:37.652Z,66.46
2018-07-12T23:55:06.268Z,65.95
2018-07-12T23:57:34.971Z,65.98
